sensor_id;sensor_type;location;lat;lon;timestamp;P1;durP1;ratioP1;P2;durP2;ratioP2
13368;SDS011;6753;52.520;13.450;2023-02-03T00:00:03;1005.80;;;893.65;;
13368;SDS011;6753;52.520;13.450;2023-02-03T00:00:16;991.15;;;881.65;;
13368;SDS011;6753;52.520;13.450;2023-02-03T00:00:27;977.05;;;869.92;;
13368;SDS011;6753;52.520;13.450;2023-02-03T00:00:40;968.83;;;863.03;;
13368;SDS011;6753;52.520;13.450;2023-02-03T00:00:52;966.60;;;861.42;;
13368;SDS011;6753;52.520;13.450;2023-02-03T00:01:03;965.20;;;860.13;;
13368;SDS011;6753;52.520;13.450;2023-02-03T00:01:14;970.75;;;865.00;;
13368;SDS011;6753;52.520;13.450;2023-02-03T00:01:25;978.58;;;871.25;;
13368;SDS011;6753;52.520;13.450;2023-02-03T00:01:36;977.40;;;869.90;;
13368;SDS011;6753;52.520;13.450;2023-02-03T00:01:47;965.22;;;859.28;;
13368;SDS011;6753;52.520;13.450;2023-02-03T00:01:58;955.33;;;850.53;;
13368;SDS011;6753;52.520;13.450;2023-02-03T00:02:08;953.37;;;848.87;;
13368;SDS011;6753;52.520;13.450;2023-02-03T00:02:19;951.90;;;847.38;;
13368;SDS011;6753;52.520;13.450;2023-02-03T00:02:31;949.15;;;845.22;;
13368;SDS011;6753;52.520;13.450;2023-02-03T00:02:42;957.73;;;852.87;;
13368;SDS011;6753;52.520;13.450;2023-02-03T00:02:52;967.08;;;860.92;;
13368;SDS011;6753;52.520;13.450;2023-02-03T00:03:03;969.55;;;863.10;;
13368;SDS011;6753;52.520;13.450;2023-02-03T00:03:14;967.05;;;861.35;;
13368;SDS011;6753;52.520;13.450;2023-02-03T00:03:25;966.53;;;860.63;;
13368;SDS011;6753;52.520;13.450;2023-02-03T00:03:36;965.65;;;859.85;;
13368;SDS011;6753;52.520;13.450;2023-02-03T00:03:47;962.00;;;856.58;;
13368;SDS011;6753;52.520;13.450;2023-02-03T00:03:58;952.70;;;848.45;;
13368;SDS011;6753;52.520;13.450;2023-02-03T00:04:10;941.55;;;838.40;;
13368;SDS011;6753;52.520;13.450;2023-02-03T00:04:20;932.72;;;830.85;;
13368;SDS011;6753;52.520;13.450;2023-02-03T00:04:31;919.47;;;819.53;;
13368;SDS011;6753;52.520;13.450;2023-02-03T00:04:42;902.30;;;804.90;;
13368;SDS011;6753;52.520;13.450;2023-02-03T00:04:53;887.28;;;792.20;;
13368;SDS011;6753;52.520;13.450;2023-02-03T00:05:04;880.28;;;786.63;;
13368;SDS011;6753;52.520;13.450;2023-02-03T00:05:15;874.35;;;781.67;;
13368;SDS011;6753;52.520;13.450;2023-02-03T00:05:27;872.93;;;780.73;;
13368;SDS011;6753;52.520;13.450;2023-02-03T00:05:39;873.58;;;781.38;;
13368;SDS011;6753;52.520;13.450;2023-02-03T00:05:51;871.45;;;779.38;;
13368;SDS011;6753;52.520;13.450;2023-02-03T00:06:02;864.67;;;773.25;;
13368;SDS011;6753;52.520;13.450;2023-02-03T00:06:14;856.03;;;765.53;;
13368;SDS011;6753;52.520;13.450;2023-02-03T00:06:24;846.60;;;757.33;;
13368;SDS011;6753;52.520;13.450;2023-02-03T00:06:35;838.80;;;750.65;;
13368;SDS011;6753;52.520;13.450;2023-02-03T00:06:47;832.67;;;745.42;;
13368;SDS011;6753;52.520;13.450;2023-02-03T00:06:59;826.97;;;740.25;;
13368;SDS011;6753;52.520;13.450;2023-02-03T00:07:10;823.80;;;737.47;;
13368;SDS011;6753;52.520;13.450;2023-02-03T00:07:22;815.72;;;730.15;;
13368;SDS011;6753;52.520;13.450;2023-02-03T00:07:33;810.00;;;724.80;;
13368;SDS011;6753;52.520;13.450;2023-02-03T00:07:46;801.30;;;716.72;;
13368;SDS011;6753;52.520;13.450;2023-02-03T00:07:58;796.40;;;712.38;;
13368;SDS011;6753;52.520;13.450;2023-02-03T00:08:09;790.37;;;707.13;;
13368;SDS011;6753;52.520;13.450;2023-02-03T00:08:21;788.10;;;705.22;;
13368;SDS011;6753;52.520;13.450;2023-02-03T00:08:32;782.05;;;699.78;;
13368;SDS011;6753;52.520;13.450;2023-02-03T00:08:43;776.60;;;695.05;;
13368;SDS011;6753;52.520;13.450;2023-02-03T00:08:54;771.40;;;690.80;;
13368;SDS011;6753;52.520;13.450;2023-02-03T00:09:07;764.95;;;684.70;;
13368;SDS011;6753;52.520;13.450;2023-02-03T00:09:18;759.93;;;680.03;;
13368;SDS011;6753;52.520;13.450;2023-02-03T00:09:29;757.47;;;677.97;;
13368;SDS011;6753;52.520;13.450;2023-02-03T00:09:40;759.27;;;679.40;;
13368;SDS011;6753;52.520;13.450;2023-02-03T00:09:51;760.63;;;680.30;;
13368;SDS011;6753;52.520;13.450;2023-02-03T00:10:03;759.88;;;679.65;;
13368;SDS011;6753;52.520;13.450;2023-02-03T00:10:15;759.85;;;679.75;;
13368;SDS011;6753;52.520;13.450;2023-02-03T00:10:30;757.92;;;677.80;;
13368;SDS011;6753;52.520;13.450;2023-02-03T00:10:41;755.92;;;676.35;;
13368;SDS011;6753;52.520;13.450;2023-02-03T00:10:52;752.70;;;673.72;;
13368;SDS011;6753;52.520;13.450;2023-02-03T00:11:03;750.90;;;672.05;;
13368;SDS011;6753;52.520;13.450;2023-02-03T00:11:15;749.35;;;670.60;;
13368;SDS011;6753;52.520;13.450;2023-02-03T00:11:27;748.22;;;669.83;;
13368;SDS011;6753;52.520;13.450;2023-02-03T00:11:39;740.90;;;663.05;;
13368;SDS011;6753;52.520;13.450;2023-02-03T00:11:50;733.40;;;656.25;;
13368;SDS011;6753;52.520;13.450;2023-02-03T00:12:01;724.92;;;648.78;;
13368;SDS011;6753;52.520;13.450;2023-02-03T00:12:12;716.20;;;640.97;;
13368;SDS011;6753;52.520;13.450;2023-02-03T00:12:23;702.88;;;628.70;;
13368;SDS011;6753;52.520;13.450;2023-02-03T00:12:34;693.30;;;620.10;;
13368;SDS011;6753;52.520;13.450;2023-02-03T00:12:44;684.75;;;612.45;;
13368;SDS011;6753;52.520;13.450;2023-02-03T00:12:55;672.85;;;601.50;;
13368;SDS011;6753;52.520;13.450;2023-02-03T00:13:07;656.95;;;586.90;;
13368;SDS011;6753;52.520;13.450;2023-02-03T00:13:18;646.22;;;577.15;;
13368;SDS011;6753;52.520;13.450;2023-02-03T00:13:29;645.42;;;576.53;;
13368;SDS011;6753;52.520;13.450;2023-02-03T00:13:40;642.10;;;573.58;;
13368;SDS011;6753;52.520;13.450;2023-02-03T00:13:51;643.27;;;574.63;;
13368;SDS011;6753;52.520;13.450;2023-02-03T00:14:02;647.42;;;578.60;;
13368;SDS011;6753;52.520;13.450;2023-02-03T00:14:14;654.47;;;584.97;;
13368;SDS011;6753;52.520;13.450;2023-02-03T00:14:25;653.80;;;584.40;;
13368;SDS011;6753;52.520;13.450;2023-02-03T00:14:36;652.00;;;582.60;;
13368;SDS011;6753;52.520;13.450;2023-02-03T00:14:47;650.55;;;581.22;;
13368;SDS011;6753;52.520;13.450;2023-02-03T00:14:58;651.13;;;581.73;;
13368;SDS011;6753;52.520;13.450;2023-02-03T00:15:09;654.78;;;585.15;;
13368;SDS011;6753;52.520;13.450;2023-02-03T00:15:20;659.72;;;589.72;;
13368;SDS011;6753;52.520;13.450;2023-02-03T00:15:32;667.42;;;596.83;;
13368;SDS011;6753;52.520;13.450;2023-02-03T00:15:43;675.80;;;604.65;;
13368;SDS011;6753;52.520;13.450;2023-02-03T00:15:53;684.58;;;612.80;;
13368;SDS011;6753;52.520;13.450;2023-02-03T00:16:04;688.70;;;616.58;;
13368;SDS011;6753;52.520;13.450;2023-02-03T00:16:16;695.88;;;623.08;;
13368;SDS011;6753;52.520;13.450;2023-02-03T00:16:27;697.37;;;624.30;;
13368;SDS011;6753;52.520;13.450;2023-02-03T00:16:38;698.58;;;625.28;;
13368;SDS011;6753;52.520;13.450;2023-02-03T00:16:49;698.53;;;625.13;;
13368;SDS011;6753;52.520;13.450;2023-02-03T00:16:59;702.88;;;629.08;;
13368;SDS011;6753;52.520;13.450;2023-02-03T00:17:10;708.90;;;634.40;;
13368;SDS011;6753;52.520;13.450;2023-02-03T00:17:21;710.92;;;636.25;;
13368;SDS011;6753;52.520;13.450;2023-02-03T00:17:32;715.30;;;640.30;;
13368;SDS011;6753;52.520;13.450;2023-02-03T00:17:43;721.35;;;645.85;;
13368;SDS011;6753;52.520;13.450;2023-02-03T00:17:54;723.80;;;648.00;;
13368;SDS011;6753;52.520;13.450;2023-02-03T00:18:05;725.75;;;649.63;;
13368;SDS011;6753;52.520;13.450;2023-02-03T00:18:16;728.72;;;652.30;;
13368;SDS011;6753;52.520;13.450;2023-02-03T00:18:27;729.90;;;653.10;;
13368;SDS011;6753;52.520;13.450;2023-02-03T00:18:38;729.80;;;653.00;;
13368;SDS011;6753;52.520;13.450;2023-02-03T00:18:48;731.63;;;654.63;;
13368;SDS011;6753;52.520;13.450;2023-02-03T00:18:59;734.03;;;656.92;;
13368;SDS011;6753;52.520;13.450;2023-02-03T00:19:10;738.13;;;660.55;;
13368;SDS011;6753;52.520;13.450;2023-02-03T00:19:21;741.70;;;663.83;;
13368;SDS011;6753;52.520;13.450;2023-02-03T00:19:32;737.33;;;660.03;;
13368;SDS011;6753;52.520;13.450;2023-02-03T00:19:43;736.72;;;659.33;;
13368;SDS011;6753;52.520;13.450;2023-02-03T00:19:54;735.78;;;658.38;;
13368;SDS011;6753;52.520;13.450;2023-02-03T00:20:05;733.53;;;656.20;;
13368;SDS011;6753;52.520;13.450;2023-02-03T00:20:16;725.75;;;649.35;;
13368;SDS011;6753;52.520;13.450;2023-02-03T00:20:28;733.47;;;656.17;;
13368;SDS011;6753;52.520;13.450;2023-02-03T00:20:39;737.25;;;659.58;;
13368;SDS011;6753;52.520;13.450;2023-02-03T00:20:51;743.75;;;665.22;;
13368;SDS011;6753;52.520;13.450;2023-02-03T00:21:02;749.33;;;670.23;;
13368;SDS011;6753;52.520;13.450;2023-02-03T00:21:12;757.53;;;677.35;;
13368;SDS011;6753;52.520;13.450;2023-02-03T00:21:24;763.40;;;682.47;;
13368;SDS011;6753;52.520;13.450;2023-02-03T00:21:35;770.40;;;688.70;;
13368;SDS011;6753;52.520;13.450;2023-02-03T00:21:45;774.83;;;692.65;;
13368;SDS011;6753;52.520;13.450;2023-02-03T00:21:56;774.08;;;691.95;;
13368;SDS011;6753;52.520;13.450;2023-02-03T00:22:07;774.90;;;692.58;;
13368;SDS011;6753;52.520;13.450;2023-02-03T00:22:19;773.50;;;691.30;;
13368;SDS011;6753;52.520;13.450;2023-02-03T00:22:29;771.88;;;689.78;;
13368;SDS011;6753;52.520;13.450;2023-02-03T00:22:40;770.90;;;688.85;;
13368;SDS011;6753;52.520;13.450;2023-02-03T00:22:51;768.77;;;686.93;;
13368;SDS011;6753;52.520;13.450;2023-02-03T00:23:02;768.78;;;687.13;;
13368;SDS011;6753;52.520;13.450;2023-02-03T00:23:14;767.25;;;686.08;;
13368;SDS011;6753;52.520;13.450;2023-02-03T00:23:24;765.05;;;684.30;;
13368;SDS011;6753;52.520;13.450;2023-02-03T00:23:39;760.78;;;680.72;;
13368;SDS011;6753;52.520;13.450;2023-02-03T00:23:50;760.70;;;680.83;;
13368;SDS011;6753;52.520;13.450;2023-02-03T00:24:00;759.80;;;679.78;;
13368;SDS011;6753;52.520;13.450;2023-02-03T00:24:11;758.20;;;678.10;;
13368;SDS011;6753;52.520;13.450;2023-02-03T00:24:22;754.72;;;674.70;;
13368;SDS011;6753;52.520;13.450;2023-02-03T00:24:33;755.07;;;674.87;;
13368;SDS011;6753;52.520;13.450;2023-02-03T00:24:45;753.47;;;673.35;;
13368;SDS011;6753;52.520;13.450;2023-02-03T00:24:55;750.03;;;670.38;;
13368;SDS011;6753;52.520;13.450;2023-02-03T00:25:06;750.60;;;670.97;;
13368;SDS011;6753;52.520;13.450;2023-02-03T00:25:17;751.03;;;671.38;;
13368;SDS011;6753;52.520;13.450;2023-02-03T00:25:30;752.08;;;672.33;;
13368;SDS011;6753;52.520;13.450;2023-02-03T00:25:41;752.38;;;672.33;;
13368;SDS011;6753;52.520;13.450;2023-02-03T00:25:52;755.40;;;675.20;;
13368;SDS011;6753;52.520;13.450;2023-02-03T00:26:06;756.70;;;676.25;;
13368;SDS011;6753;52.520;13.450;2023-02-03T00:26:19;754.13;;;674.00;;
13368;SDS011;6753;52.520;13.450;2023-02-03T00:26:29;755.50;;;675.30;;
13368;SDS011;6753;52.520;13.450;2023-02-03T00:26:40;755.67;;;675.30;;
13368;SDS011;6753;52.520;13.450;2023-02-03T00:26:52;753.33;;;673.13;;
13368;SDS011;6753;52.520;13.450;2023-02-03T00:27:03;750.75;;;670.88;;
13368;SDS011;6753;52.520;13.450;2023-02-03T00:27:13;750.80;;;671.00;;
13368;SDS011;6753;52.520;13.450;2023-02-03T00:27:24;750.63;;;670.93;;
13368;SDS011;6753;52.520;13.450;2023-02-03T00:27:35;746.22;;;666.97;;
13368;SDS011;6753;52.520;13.450;2023-02-03T00:27:47;743.08;;;664.33;;
13368;SDS011;6753;52.520;13.450;2023-02-03T00:27:58;742.00;;;663.20;;
13368;SDS011;6753;52.520;13.450;2023-02-03T00:28:08;740.73;;;661.83;;
13368;SDS011;6753;52.520;13.450;2023-02-03T00:28:19;738.20;;;659.58;;
13368;SDS011;6753;52.520;13.450;2023-02-03T00:28:30;738.83;;;660.22;;
13368;SDS011;6753;52.520;13.450;2023-02-03T00:28:41;742.65;;;663.63;;
13368;SDS011;6753;52.520;13.450;2023-02-03T00:28:52;742.90;;;663.73;;
13368;SDS011;6753;52.520;13.450;2023-02-03T00:29:02;746.10;;;666.58;;
13368;SDS011;6753;52.520;13.450;2023-02-03T00:29:14;748.00;;;668.40;;
13368;SDS011;6753;52.520;13.450;2023-02-03T00:29:25;750.25;;;670.45;;
13368;SDS011;6753;52.520;13.450;2023-02-03T00:29:36;749.27;;;669.60;;
13368;SDS011;6753;52.520;13.450;2023-02-03T00:29:46;750.28;;;670.45;;
13368;SDS011;6753;52.520;13.450;2023-02-03T00:29:57;750.60;;;670.88;;
13368;SDS011;6753;52.520;13.450;2023-02-03T00:30:08;751.35;;;671.85;;
13368;SDS011;6753;52.520;13.450;2023-02-03T00:30:20;754.13;;;674.22;;
13368;SDS011;6753;52.520;13.450;2023-02-03T00:30:32;755.90;;;675.88;;
13368;SDS011;6753;52.520;13.450;2023-02-03T00:30:43;755.70;;;675.60;;
13368;SDS011;6753;52.520;13.450;2023-02-03T00:30:54;755.80;;;675.92;;
13368;SDS011;6753;52.520;13.450;2023-02-03T00:31:05;754.55;;;674.55;;
13368;SDS011;6753;52.520;13.450;2023-02-03T00:31:23;751.17;;;671.67;;
13368;SDS011;6753;52.520;13.450;2023-02-03T00:31:34;750.33;;;670.92;;
13368;SDS011;6753;52.520;13.450;2023-02-03T00:31:45;751.35;;;672.00;;
13368;SDS011;6753;52.520;13.450;2023-02-03T00:31:56;751.83;;;672.40;;
13368;SDS011;6753;52.520;13.450;2023-02-03T00:32:07;753.00;;;673.63;;
13368;SDS011;6753;52.520;13.450;2023-02-03T00:32:18;755.05;;;675.35;;
13368;SDS011;6753;52.520;13.450;2023-02-03T00:32:29;756.80;;;677.10;;
13368;SDS011;6753;52.520;13.450;2023-02-03T00:32:40;758.10;;;678.40;;
13368;SDS011;6753;52.520;13.450;2023-02-03T00:32:50;760.20;;;680.22;;
13368;SDS011;6753;52.520;13.450;2023-02-03T00:33:04;761.90;;;681.83;;
13368;SDS011;6753;52.520;13.450;2023-02-03T00:33:16;764.05;;;683.85;;
13368;SDS011;6753;52.520;13.450;2023-02-03T00:33:26;765.38;;;685.03;;
13368;SDS011;6753;52.520;13.450;2023-02-03T00:33:37;765.93;;;685.57;;
13368;SDS011;6753;52.520;13.450;2023-02-03T00:33:52;765.13;;;684.88;;
13368;SDS011;6753;52.520;13.450;2023-02-03T00:34:03;762.38;;;682.33;;
13368;SDS011;6753;52.520;13.450;2023-02-03T00:34:14;759.90;;;680.08;;
13368;SDS011;6753;52.520;13.450;2023-02-03T00:34:26;758.63;;;679.13;;
13368;SDS011;6753;52.520;13.450;2023-02-03T00:34:37;756.58;;;677.33;;
13368;SDS011;6753;52.520;13.450;2023-02-03T00:34:49;755.17;;;676.00;;
13368;SDS011;6753;52.520;13.450;2023-02-03T00:35:00;756.85;;;677.58;;
13368;SDS011;6753;52.520;13.450;2023-02-03T00:35:10;754.55;;;675.55;;
13368;SDS011;6753;52.520;13.450;2023-02-03T00:35:21;753.43;;;674.53;;
13368;SDS011;6753;52.520;13.450;2023-02-03T00:35:34;752.97;;;673.97;;
13368;SDS011;6753;52.520;13.450;2023-02-03T00:35:47;755.95;;;676.55;;
13368;SDS011;6753;52.520;13.450;2023-02-03T00:36:03;753.75;;;674.58;;
13368;SDS011;6753;52.520;13.450;2023-02-03T00:36:15;751.97;;;672.88;;
13368;SDS011;6753;52.520;13.450;2023-02-03T00:36:26;751.88;;;672.67;;
13368;SDS011;6753;52.520;13.450;2023-02-03T00:36:37;752.80;;;673.75;;
13368;SDS011;6753;52.520;13.450;2023-02-03T00:36:47;751.90;;;672.90;;
13368;SDS011;6753;52.520;13.450;2023-02-03T00:36:58;751.92;;;672.92;;
13368;SDS011;6753;52.520;13.450;2023-02-03T00:37:10;752.45;;;673.65;;
13368;SDS011;6753;52.520;13.450;2023-02-03T00:37:21;750.35;;;671.67;;
13368;SDS011;6753;52.520;13.450;2023-02-03T00:37:33;748.92;;;670.30;;
13368;SDS011;6753;52.520;13.450;2023-02-03T00:37:49;745.83;;;667.42;;
13368;SDS011;6753;52.520;13.450;2023-02-03T00:38:00;745.10;;;666.67;;
13368;SDS011;6753;52.520;13.450;2023-02-03T00:38:11;744.90;;;666.17;;
13368;SDS011;6753;52.520;13.450;2023-02-03T00:38:21;746.80;;;667.92;;
13368;SDS011;6753;52.520;13.450;2023-02-03T00:38:35;745.35;;;666.85;;
13368;SDS011;6753;52.520;13.450;2023-02-03T00:38:46;747.00;;;668.58;;
13368;SDS011;6753;52.520;13.450;2023-02-03T00:38:58;747.92;;;669.42;;
13368;SDS011;6753;52.520;13.450;2023-02-03T00:39:10;748.13;;;669.63;;
13368;SDS011;6753;52.520;13.450;2023-02-03T00:39:21;747.00;;;668.63;;
13368;SDS011;6753;52.520;13.450;2023-02-03T00:39:34;747.08;;;668.67;;
13368;SDS011;6753;52.520;13.450;2023-02-03T00:39:46;745.58;;;667.30;;
13368;SDS011;6753;52.520;13.450;2023-02-03T00:39:56;744.10;;;665.80;;
13368;SDS011;6753;52.520;13.450;2023-02-03T00:40:07;744.72;;;666.38;;
13368;SDS011;6753;52.520;13.450;2023-02-03T00:40:19;746.70;;;668.22;;
13368;SDS011;6753;52.520;13.450;2023-02-03T00:40:32;749.35;;;670.58;;
13368;SDS011;6753;52.520;13.450;2023-02-03T00:40:50;749.30;;;670.45;;
13368;SDS011;6753;52.520;13.450;2023-02-03T00:41:01;750.42;;;671.72;;
13368;SDS011;6753;52.520;13.450;2023-02-03T00:41:12;747.17;;;668.80;;
13368;SDS011;6753;52.520;13.450;2023-02-03T00:41:23;745.80;;;667.50;;
13368;SDS011;6753;52.520;13.450;2023-02-03T00:41:38;744.20;;;666.05;;
13368;SDS011;6753;52.520;13.450;2023-02-03T00:41:50;745.47;;;667.17;;
13368;SDS011;6753;52.520;13.450;2023-02-03T00:42:00;747.75;;;669.15;;
13368;SDS011;6753;52.520;13.450;2023-02-03T00:42:12;749.42;;;670.65;;
13368;SDS011;6753;52.520;13.450;2023-02-03T00:42:23;749.78;;;670.88;;
13368;SDS011;6753;52.520;13.450;2023-02-03T00:42:33;750.58;;;671.42;;
13368;SDS011;6753;52.520;13.450;2023-02-03T00:42:44;750.70;;;671.50;;
13368;SDS011;6753;52.520;13.450;2023-02-03T00:42:55;749.87;;;670.63;;
13368;SDS011;6753;52.520;13.450;2023-02-03T00:43:06;746.20;;;667.17;;
13368;SDS011;6753;52.520;13.450;2023-02-03T00:43:18;745.22;;;666.28;;
13368;SDS011;6753;52.520;13.450;2023-02-03T00:43:29;744.75;;;666.05;;
13368;SDS011;6753;52.520;13.450;2023-02-03T00:43:39;744.80;;;666.10;;
13368;SDS011;6753;52.520;13.450;2023-02-03T00:43:50;746.10;;;667.43;;
13368;SDS011;6753;52.520;13.450;2023-02-03T00:44:01;749.05;;;670.35;;
13368;SDS011;6753;52.520;13.450;2023-02-03T00:44:12;751.78;;;672.92;;
13368;SDS011;6753;52.520;13.450;2023-02-03T00:44:23;754.55;;;675.42;;
13368;SDS011;6753;52.520;13.450;2023-02-03T00:44:34;754.55;;;675.38;;
13368;SDS011;6753;52.520;13.450;2023-02-03T00:44:45;755.10;;;675.97;;
13368;SDS011;6753;52.520;13.450;2023-02-03T00:44:56;755.10;;;676.03;;
13368;SDS011;6753;52.520;13.450;2023-02-03T00:45:07;753.83;;;674.67;;
13368;SDS011;6753;52.520;13.450;2023-02-03T00:45:18;754.25;;;675.05;;
13368;SDS011;6753;52.520;13.450;2023-02-03T00:45:31;754.10;;;674.80;;
13368;SDS011;6753;52.520;13.450;2023-02-03T00:45:42;753.42;;;674.22;;
13368;SDS011;6753;52.520;13.450;2023-02-03T00:45:53;753.47;;;674.03;;
13368;SDS011;6753;52.520;13.450;2023-02-03T00:46:05;754.90;;;675.40;;
13368;SDS011;6753;52.520;13.450;2023-02-03T00:46:16;753.13;;;673.42;;
13368;SDS011;6753;52.520;13.450;2023-02-03T00:46:26;751.90;;;672.33;;
13368;SDS011;6753;52.520;13.450;2023-02-03T00:46:37;751.10;;;671.78;;
13368;SDS011;6753;52.520;13.450;2023-02-03T00:46:48;749.53;;;670.45;;
13368;SDS011;6753;52.520;13.450;2023-02-03T00:46:59;746.70;;;667.90;;
13368;SDS011;6753;52.520;13.450;2023-02-03T00:47:10;741.28;;;663.22;;
13368;SDS011;6753;52.520;13.450;2023-02-03T00:47:21;737.67;;;660.17;;
13368;SDS011;6753;52.520;13.450;2023-02-03T00:47:32;738.28;;;660.90;;
13368;SDS011;6753;52.520;13.450;2023-02-03T00:47:43;738.47;;;660.92;;
13368;SDS011;6753;52.520;13.450;2023-02-03T00:47:54;739.90;;;662.03;;
13368;SDS011;6753;52.520;13.450;2023-02-03T00:48:04;743.80;;;665.65;;
13368;SDS011;6753;52.520;13.450;2023-02-03T00:48:16;748.00;;;669.60;;
13368;SDS011;6753;52.520;13.450;2023-02-03T00:48:29;748.95;;;670.17;;
13368;SDS011;6753;52.520;13.450;2023-02-03T00:48:41;749.42;;;670.60;;
13368;SDS011;6753;52.520;13.450;2023-02-03T00:48:52;748.27;;;669.67;;
13368;SDS011;6753;52.520;13.450;2023-02-03T00:49:03;751.67;;;672.72;;
13368;SDS011;6753;52.520;13.450;2023-02-03T00:49:14;755.47;;;676.13;;
13368;SDS011;6753;52.520;13.450;2023-02-03T00:49:25;759.28;;;679.28;;
13368;SDS011;6753;52.520;13.450;2023-02-03T00:49:35;762.67;;;682.25;;
13368;SDS011;6753;52.520;13.450;2023-02-03T00:49:46;767.30;;;686.55;;
13368;SDS011;6753;52.520;13.450;2023-02-03T00:49:57;771.20;;;689.95;;
13368;SDS011;6753;52.520;13.450;2023-02-03T00:50:09;772.85;;;691.30;;
13368;SDS011;6753;52.520;13.450;2023-02-03T00:50:20;775.90;;;693.90;;
13368;SDS011;6753;52.520;13.450;2023-02-03T00:50:31;777.60;;;695.70;;
13368;SDS011;6753;52.520;13.450;2023-02-03T00:50:44;778.78;;;696.85;;
13368;SDS011;6753;52.520;13.450;2023-02-03T00:50:55;779.08;;;697.20;;
13368;SDS011;6753;52.520;13.450;2023-02-03T00:51:06;778.43;;;696.93;;
13368;SDS011;6753;52.520;13.450;2023-02-03T00:51:17;776.80;;;695.85;;
13368;SDS011;6753;52.520;13.450;2023-02-03T00:51:28;776.53;;;695.63;;
13368;SDS011;6753;52.520;13.450;2023-02-03T00:51:38;775.50;;;694.58;;
13368;SDS011;6753;52.520;13.450;2023-02-03T00:51:50;776.03;;;694.83;;
13368;SDS011;6753;52.520;13.450;2023-02-03T00:52:01;777.70;;;696.33;;
13368;SDS011;6753;52.520;13.450;2023-02-03T00:52:12;780.63;;;698.83;;
13368;SDS011;6753;52.520;13.450;2023-02-03T00:52:22;784.15;;;701.70;;
13368;SDS011;6753;52.520;13.450;2023-02-03T00:52:33;786.70;;;704.07;;
13368;SDS011;6753;52.520;13.450;2023-02-03T00:52:44;789.35;;;706.50;;
13368;SDS011;6753;52.520;13.450;2023-02-03T00:52:55;790.80;;;707.83;;
13368;SDS011;6753;52.520;13.450;2023-02-03T00:53:07;793.50;;;710.17;;
13368;SDS011;6753;52.520;13.450;2023-02-03T00:53:17;794.20;;;710.67;;
13368;SDS011;6753;52.520;13.450;2023-02-03T00:53:28;796.00;;;712.15;;
13368;SDS011;6753;52.520;13.450;2023-02-03T00:53:39;798.65;;;714.80;;
13368;SDS011;6753;52.520;13.450;2023-02-03T00:53:50;801.25;;;717.05;;
13368;SDS011;6753;52.520;13.450;2023-02-03T00:54:00;800.90;;;716.57;;
13368;SDS011;6753;52.520;13.450;2023-02-03T00:54:11;800.58;;;716.00;;
13368;SDS011;6753;52.520;13.450;2023-02-03T00:54:23;801.83;;;717.40;;
13368;SDS011;6753;52.520;13.450;2023-02-03T00:54:34;802.20;;;717.65;;
13368;SDS011;6753;52.520;13.450;2023-02-03T00:54:44;803.77;;;718.67;;
13368;SDS011;6753;52.520;13.450;2023-02-03T00:54:55;805.15;;;719.95;;
13368;SDS011;6753;52.520;13.450;2023-02-03T00:55:06;805.25;;;720.25;;
13368;SDS011;6753;52.520;13.450;2023-02-03T00:55:17;807.90;;;722.65;;
13368;SDS011;6753;52.520;13.450;2023-02-03T00:55:28;809.05;;;723.45;;
13368;SDS011;6753;52.520;13.450;2023-02-03T00:55:41;810.78;;;725.22;;
13368;SDS011;6753;52.520;13.450;2023-02-03T00:55:52;810.75;;;725.22;;
13368;SDS011;6753;52.520;13.450;2023-02-03T00:56:04;812.70;;;726.92;;
13368;SDS011;6753;52.520;13.450;2023-02-03T00:56:21;813.55;;;727.72;;
13368;SDS011;6753;52.520;13.450;2023-02-03T00:56:32;811.20;;;725.63;;
13368;SDS011;6753;52.520;13.450;2023-02-03T00:56:42;809.58;;;724.08;;
13368;SDS011;6753;52.520;13.450;2023-02-03T00:56:53;810.28;;;724.67;;
13368;SDS011;6753;52.520;13.450;2023-02-03T00:57:04;810.53;;;724.65;;
13368;SDS011;6753;52.520;13.450;2023-02-03T00:57:15;810.07;;;724.03;;
13368;SDS011;6753;52.520;13.450;2023-02-03T00:57:26;811.25;;;725.05;;
13368;SDS011;6753;52.520;13.450;2023-02-03T00:57:37;815.10;;;728.28;;
13368;SDS011;6753;52.520;13.450;2023-02-03T00:57:48;815.40;;;728.33;;
13368;SDS011;6753;52.520;13.450;2023-02-03T00:57:59;817.23;;;730.03;;
13368;SDS011;6753;52.520;13.450;2023-02-03T00:58:10;818.67;;;731.17;;
13368;SDS011;6753;52.520;13.450;2023-02-03T00:58:20;820.75;;;732.90;;
13368;SDS011;6753;52.520;13.450;2023-02-03T00:58:31;823.35;;;735.33;;
13368;SDS011;6753;52.520;13.450;2023-02-03T00:58:43;825.85;;;737.45;;
13368;SDS011;6753;52.520;13.450;2023-02-03T00:58:54;829.33;;;740.38;;
13368;SDS011;6753;52.520;13.450;2023-02-03T00:59:04;829.78;;;740.72;;
13368;SDS011;6753;52.520;13.450;2023-02-03T00:59:15;831.67;;;742.78;;
13368;SDS011;6753;52.520;13.450;2023-02-03T00:59:26;833.00;;;744.17;;
13368;SDS011;6753;52.520;13.450;2023-02-03T00:59:37;831.70;;;743.13;;
13368;SDS011;6753;52.520;13.450;2023-02-03T00:59:48;826.55;;;738.50;;
13368;SDS011;6753;52.520;13.450;2023-02-03T00:59:59;822.42;;;735.15;;
13368;SDS011;6753;52.520;13.450;2023-02-03T01:00:11;819.80;;;732.88;;
13368;SDS011;6753;52.520;13.450;2023-02-03T01:00:22;817.78;;;730.95;;
13368;SDS011;6753;52.520;13.450;2023-02-03T01:00:33;818.08;;;731.10;;
13368;SDS011;6753;52.520;13.450;2023-02-03T01:00:44;822.90;;;735.33;;
13368;SDS011;6753;52.520;13.450;2023-02-03T01:00:55;826.60;;;738.63;;
13368;SDS011;6753;52.520;13.450;2023-02-03T01:01:06;829.03;;;740.33;;
13368;SDS011;6753;52.520;13.450;2023-02-03T01:01:17;831.72;;;742.65;;
13368;SDS011;6753;52.520;13.450;2023-02-03T01:01:29;828.83;;;740.03;;
13368;SDS011;6753;52.520;13.450;2023-02-03T01:01:39;826.20;;;737.78;;
13368;SDS011;6753;52.520;13.450;2023-02-03T01:01:50;824.25;;;735.95;;
13368;SDS011;6753;52.520;13.450;2023-02-03T01:02:01;822.50;;;734.50;;
13368;SDS011;6753;52.520;13.450;2023-02-03T01:02:12;820.30;;;732.75;;
13368;SDS011;6753;52.520;13.450;2023-02-03T01:02:23;820.45;;;732.80;;
13368;SDS011;6753;52.520;13.450;2023-02-03T01:02:34;820.53;;;733.00;;
13368;SDS011;6753;52.520;13.450;2023-02-03T01:02:45;818.83;;;731.50;;
13368;SDS011;6753;52.520;13.450;2023-02-03T01:02:56;818.35;;;731.05;;
13368;SDS011;6753;52.520;13.450;2023-02-03T01:03:07;817.55;;;730.28;;
13368;SDS011;6753;52.520;13.450;2023-02-03T01:03:18;814.58;;;727.72;;
13368;SDS011;6753;52.520;13.450;2023-02-03T01:03:28;812.80;;;726.00;;
13368;SDS011;6753;52.520;13.450;2023-02-03T01:03:39;813.20;;;726.58;;
13368;SDS011;6753;52.520;13.450;2023-02-03T01:03:50;813.00;;;726.42;;
13368;SDS011;6753;52.520;13.450;2023-02-03T01:04:02;813.10;;;726.70;;